sensor_id;sensor_type;location;lat;lon;timestamp;P1;durP1;ratioP1;P2;durP2;ratioP2
58384;SDS011;44185;47.844;8.966;2023-03-04T00:01:18;39.83;;;18.67;;
58384;SDS011;44185;47.844;8.966;2023-03-04T00:03:44;38.13;;;19.20;;
58384;SDS011;44185;47.844;8.966;2023-03-04T00:06:11;42.53;;;20.10;;
58384;SDS011;44185;47.844;8.966;2023-03-04T00:08:36;48.92;;;20.45;;
58384;SDS011;44185;47.844;8.966;2023-03-04T00:11:01;37.28;;;17.63;;
58384;SDS011;44185;47.844;8.966;2023-03-04T00:13:27;39.72;;;17.98;;
58384;SDS011;44185;47.844;8.966;2023-03-04T00:15:52;37.15;;;17.02;;
58384;SDS011;44185;47.844;8.966;2023-03-04T00:18:18;37.15;;;17.30;;
58384;SDS011;44185;47.844;8.966;2023-03-04T00:20:44;37.58;;;17.88;;
58384;SDS011;44185;47.844;8.966;2023-03-04T00:23:11;35.63;;;18.40;;
58384;SDS011;44185;47.844;8.966;2023-03-04T00:25:36;36.85;;;17.85;;
58384;SDS011;44185;47.844;8.966;2023-03-04T00:28:01;40.80;;;17.65;;
58384;SDS011;44185;47.844;8.966;2023-03-04T00:30:27;31.10;;;15.45;;
58384;SDS011;44185;47.844;8.966;2023-03-04T00:32:53;33.00;;;16.73;;
58384;SDS011;44185;47.844;8.966;2023-03-04T00:35:18;35.72;;;17.08;;
58384;SDS011;44185;47.844;8.966;2023-03-04T00:37:44;36.08;;;16.63;;
58384;SDS011;44185;47.844;8.966;2023-03-04T00:40:11;35.25;;;17.20;;
58384;SDS011;44185;47.844;8.966;2023-03-04T00:42:37;32.58;;;16.02;;
58384;SDS011;44185;47.844;8.966;2023-03-04T00:45:03;35.72;;;17.10;;
58384;SDS011;44185;47.844;8.966;2023-03-04T00:47:29;30.02;;;16.10;;
58384;SDS011;44185;47.844;8.966;2023-03-04T00:49:55;32.90;;;15.65;;
58384;SDS011;44185;47.844;8.966;2023-03-04T00:52:20;34.58;;;16.42;;
58384;SDS011;44185;47.844;8.966;2023-03-04T00:54:46;37.28;;;16.58;;
58384;SDS011;44185;47.844;8.966;2023-03-04T00:57:13;38.08;;;18.17;;
58384;SDS011;44185;47.844;8.966;2023-03-04T00:59:38;31.77;;;17.23;;
58384;SDS011;44185;47.844;8.966;2023-03-04T01:02:03;36.72;;;16.28;;
58384;SDS011;44185;47.844;8.966;2023-03-04T01:04:29;38.67;;;16.50;;
58384;SDS011;44185;47.844;8.966;2023-03-04T01:06:54;37.03;;;16.60;;
58384;SDS011;44185;47.844;8.966;2023-03-04T01:09:20;37.10;;;16.50;;
58384;SDS011;44185;47.844;8.966;2023-03-04T01:11:45;35.72;;;17.00;;
58384;SDS011;44185;47.844;8.966;2023-03-04T01:14:12;39.08;;;17.80;;
58384;SDS011;44185;47.844;8.966;2023-03-04T01:16:37;38.47;;;16.92;;
58384;SDS011;44185;47.844;8.966;2023-03-04T01:19:03;33.58;;;16.17;;
58384;SDS011;44185;47.844;8.966;2023-03-04T01:21:29;37.38;;;17.20;;
58384;SDS011;44185;47.844;8.966;2023-03-04T01:23:54;36.47;;;16.77;;
58384;SDS011;44185;47.844;8.966;2023-03-04T01:26:20;40.42;;;17.35;;
58384;SDS011;44185;47.844;8.966;2023-03-04T01:28:45;37.05;;;17.45;;
58384;SDS011;44185;47.844;8.966;2023-03-04T01:31:12;39.78;;;18.23;;
58384;SDS011;44185;47.844;8.966;2023-03-04T01:33:38;32.92;;;17.50;;
58384;SDS011;44185;47.844;8.966;2023-03-04T01:36:04;38.17;;;17.17;;
58384;SDS011;44185;47.844;8.966;2023-03-04T01:38:29;36.17;;;16.77;;
58384;SDS011;44185;47.844;8.966;2023-03-04T01:40:55;40.33;;;16.65;;
58384;SDS011;44185;47.844;8.966;2023-03-04T01:43:21;34.97;;;17.27;;
58384;SDS011;44185;47.844;8.966;2023-03-04T01:48:17;30.70;;;15.50;;
58384;SDS011;44185;47.844;8.966;2023-03-04T01:50:48;38.47;;;16.77;;
58384;SDS011;44185;47.844;8.966;2023-03-04T01:53:16;33.42;;;16.15;;
58384;SDS011;44185;47.844;8.966;2023-03-04T01:55:44;35.78;;;16.45;;
58384;SDS011;44185;47.844;8.966;2023-03-04T01:58:09;35.58;;;16.63;;
58384;SDS011;44185;47.844;8.966;2023-03-04T02:00:36;34.22;;;15.88;;
58384;SDS011;44185;47.844;8.966;2023-03-04T02:03:03;36.80;;;16.52;;
58384;SDS011;44185;47.844;8.966;2023-03-04T02:05:32;30.60;;;14.70;;
58384;SDS011;44185;47.844;8.966;2023-03-04T02:07:59;33.22;;;15.80;;
58384;SDS011;44185;47.844;8.966;2023-03-04T02:10:26;31.83;;;14.52;;
58384;SDS011;44185;47.844;8.966;2023-03-04T02:12:52;36.75;;;17.63;;
58384;SDS011;44185;47.844;8.966;2023-03-04T02:15:18;33.00;;;16.77;;
58384;SDS011;44185;47.844;8.966;2023-03-04T02:17:44;38.28;;;16.95;;
58384;SDS011;44185;47.844;8.966;2023-03-04T02:20:12;36.88;;;16.70;;
58384;SDS011;44185;47.844;8.966;2023-03-04T02:22:45;31.73;;;15.15;;
58384;SDS011;44185;47.844;8.966;2023-03-04T02:25:17;35.35;;;15.15;;
58384;SDS011;44185;47.844;8.966;2023-03-04T02:27:49;35.28;;;16.23;;
58384;SDS011;44185;47.844;8.966;2023-03-04T02:30:15;33.50;;;15.07;;
58384;SDS011;44185;47.844;8.966;2023-03-04T02:32:42;33.42;;;17.02;;
58384;SDS011;44185;47.844;8.966;2023-03-04T02:35:07;33.63;;;15.52;;
58384;SDS011;44185;47.844;8.966;2023-03-04T02:37:40;30.27;;;14.70;;
58384;SDS011;44185;47.844;8.966;2023-03-04T02:40:05;32.75;;;15.70;;
58384;SDS011;44185;47.844;8.966;2023-03-04T02:42:38;33.30;;;16.13;;
58384;SDS011;44185;47.844;8.966;2023-03-04T02:45:05;33.17;;;16.02;;
58384;SDS011;44185;47.844;8.966;2023-03-04T02:47:46;32.90;;;16.40;;
58384;SDS011;44185;47.844;8.966;2023-03-04T02:50:11;38.03;;;17.02;;
58384;SDS011;44185;47.844;8.966;2023-03-04T02:52:37;34.40;;;16.80;;
58384;SDS011;44185;47.844;8.966;2023-03-04T02:55:03;41.45;;;15.77;;
58384;SDS011;44185;47.844;8.966;2023-03-04T02:57:28;36.85;;;16.25;;
58384;SDS011;44185;47.844;8.966;2023-03-04T02:59:54;35.97;;;15.68;;
58384;SDS011;44185;47.844;8.966;2023-03-04T03:02:21;32.78;;;15.25;;
58384;SDS011;44185;47.844;8.966;2023-03-04T03:04:46;32.13;;;16.02;;
58384;SDS011;44185;47.844;8.966;2023-03-04T03:07:12;35.38;;;16.27;;
58384;SDS011;44185;47.844;8.966;2023-03-04T03:09:37;37.97;;;16.92;;
58384;SDS011;44185;47.844;8.966;2023-03-04T03:12:03;35.40;;;16.02;;
58384;SDS011;44185;47.844;8.966;2023-03-04T03:14:28;38.80;;;17.80;;
58384;SDS011;44185;47.844;8.966;2023-03-04T03:16:54;35.17;;;16.58;;
58384;SDS011;44185;47.844;8.966;2023-03-04T03:19:20;33.38;;;15.43;;
58384;SDS011;44185;47.844;8.966;2023-03-04T03:21:46;33.42;;;16.63;;
58384;SDS011;44185;47.844;8.966;2023-03-04T03:24:11;32.15;;;16.42;;
58384;SDS011;44185;47.844;8.966;2023-03-04T03:26:37;40.22;;;18.25;;
58384;SDS011;44185;47.844;8.966;2023-03-04T03:29:02;41.00;;;16.80;;
58384;SDS011;44185;47.844;8.966;2023-03-04T03:31:27;37.67;;;17.17;;
58384;SDS011;44185;47.844;8.966;2023-03-04T03:33:53;39.70;;;15.40;;
58384;SDS011;44185;47.844;8.966;2023-03-04T03:36:20;34.08;;;16.52;;
58384;SDS011;44185;47.844;8.966;2023-03-04T03:38:45;35.88;;;17.15;;
58384;SDS011;44185;47.844;8.966;2023-03-04T03:41:11;37.72;;;17.05;;
58384;SDS011;44185;47.844;8.966;2023-03-04T03:43:36;36.78;;;16.60;;
58384;SDS011;44185;47.844;8.966;2023-03-04T03:46:01;34.78;;;15.24;;
58384;SDS011;44185;47.844;8.966;2023-03-04T03:48:27;31.60;;;16.00;;
58384;SDS011;44185;47.844;8.966;2023-03-04T03:50:52;36.78;;;17.30;;
58384;SDS011;44185;47.844;8.966;2023-03-04T03:53:20;33.40;;;16.17;;
58384;SDS011;44185;47.844;8.966;2023-03-04T03:55:45;37.13;;;16.25;;
58384;SDS011;44185;47.844;8.966;2023-03-04T03:58:11;35.08;;;16.75;;
58384;SDS011;44185;47.844;8.966;2023-03-04T04:00:36;32.03;;;15.25;;
58384;SDS011;44185;47.844;8.966;2023-03-04T04:03:01;38.62;;;17.40;;
58384;SDS011;44185;47.844;8.966;2023-03-04T04:05:27;37.35;;;16.63;;
58384;SDS011;44185;47.844;8.966;2023-03-04T04:07:53;35.70;;;17.55;;
58384;SDS011;44185;47.844;8.966;2023-03-04T04:10:20;28.38;;;15.18;;
58384;SDS011;44185;47.844;8.966;2023-03-04T04:12:45;32.83;;;15.43;;
58384;SDS011;44185;47.844;8.966;2023-03-04T04:15:11;36.70;;;16.00;;
58384;SDS011;44185;47.844;8.966;2023-03-04T04:17:36;36.00;;;16.30;;
58384;SDS011;44185;47.844;8.966;2023-03-04T04:20:02;34.75;;;15.90;;
58384;SDS011;44185;47.844;8.966;2023-03-04T04:22:28;32.50;;;15.13;;
58384;SDS011;44185;47.844;8.966;2023-03-04T04:24:53;35.75;;;16.13;;
58384;SDS011;44185;47.844;8.966;2023-03-04T04:27:20;38.03;;;17.67;;
58384;SDS011;44185;47.844;8.966;2023-03-04T04:29:46;38.60;;;16.00;;
58384;SDS011;44185;47.844;8.966;2023-03-04T04:32:11;37.10;;;16.92;;
58384;SDS011;44185;47.844;8.966;2023-03-04T04:34:36;34.15;;;15.88;;
58384;SDS011;44185;47.844;8.966;2023-03-04T04:37:02;33.47;;;17.15;;
58384;SDS011;44185;47.844;8.966;2023-03-04T04:39:27;35.05;;;17.00;;
58384;SDS011;44185;47.844;8.966;2023-03-04T04:41:53;37.42;;;16.75;;
58384;SDS011;44185;47.844;8.966;2023-03-04T04:44:20;33.17;;;15.73;;
58384;SDS011;44185;47.844;8.966;2023-03-04T04:46:45;35.70;;;15.65;;
58384;SDS011;44185;47.844;8.966;2023-03-04T04:49:11;31.67;;;16.70;;
58384;SDS011;44185;47.844;8.966;2023-03-04T04:51:36;38.67;;;16.52;;
58384;SDS011;44185;47.844;8.966;2023-03-04T04:54:02;32.92;;;15.23;;
58384;SDS011;44185;47.844;8.966;2023-03-04T04:56:28;35.75;;;15.30;;
58384;SDS011;44185;47.844;8.966;2023-03-04T04:58:55;32.63;;;16.17;;
58384;SDS011;44185;47.844;8.966;2023-03-04T05:01:23;34.97;;;17.65;;
58384;SDS011;44185;47.844;8.966;2023-03-04T05:03:49;38.15;;;15.18;;
58384;SDS011;44185;47.844;8.966;2023-03-04T05:06:15;34.97;;;15.90;;
58384;SDS011;44185;47.844;8.966;2023-03-04T05:08:41;35.35;;;17.48;;
58384;SDS011;44185;47.844;8.966;2023-03-04T05:11:07;37.40;;;17.35;;
58384;SDS011;44185;47.844;8.966;2023-03-04T05:13:32;28.73;;;14.43;;
58384;SDS011;44185;47.844;8.966;2023-03-04T05:15:58;36.60;;;16.17;;
58384;SDS011;44185;47.844;8.966;2023-03-04T05:18:25;38.55;;;15.60;;
58384;SDS011;44185;47.844;8.966;2023-03-04T05:20:51;36.75;;;15.73;;
58384;SDS011;44185;47.844;8.966;2023-03-04T05:23:18;33.88;;;15.88;;
58384;SDS011;44185;47.844;8.966;2023-03-04T05:25:44;39.83;;;17.20;;
58384;SDS011;44185;47.844;8.966;2023-03-04T05:28:10;35.10;;;16.02;;
58384;SDS011;44185;47.844;8.966;2023-03-04T05:30:35;35.28;;;16.10;;
58384;SDS011;44185;47.844;8.966;2023-03-04T05:33:01;34.05;;;16.60;;
58384;SDS011;44185;47.844;8.966;2023-03-04T05:35:27;33.92;;;16.40;;
58384;SDS011;44185;47.844;8.966;2023-03-04T05:37:53;33.78;;;15.68;;
58384;SDS011;44185;47.844;8.966;2023-03-04T05:40:18;33.20;;;15.73;;
58384;SDS011;44185;47.844;8.966;2023-03-04T05:42:44;34.47;;;16.98;;
58384;SDS011;44185;47.844;8.966;2023-03-04T05:45:10;35.17;;;15.88;;
58384;SDS011;44185;47.844;8.966;2023-03-04T05:47:36;36.73;;;15.60;;
58384;SDS011;44185;47.844;8.966;2023-03-04T05:50:01;35.42;;;15.70;;
58384;SDS011;44185;47.844;8.966;2023-03-04T05:52:28;35.88;;;16.15;;
58384;SDS011;44185;47.844;8.966;2023-03-04T05:54:53;36.40;;;16.17;;
58384;SDS011;44185;47.844;8.966;2023-03-04T05:57:19;34.67;;;16.05;;
58384;SDS011;44185;47.844;8.966;2023-03-04T05:59:44;33.15;;;15.35;;
58384;SDS011;44185;47.844;8.966;2023-03-04T06:02:10;35.70;;;15.75;;
58384;SDS011;44185;47.844;8.966;2023-03-04T06:04:35;35.05;;;15.05;;
58384;SDS011;44185;47.844;8.966;2023-03-04T06:07:00;36.08;;;16.92;;
58384;SDS011;44185;47.844;8.966;2023-03-04T06:09:27;36.72;;;17.67;;
58384;SDS011;44185;47.844;8.966;2023-03-04T06:11:53;33.67;;;16.73;;
58384;SDS011;44185;47.844;8.966;2023-03-04T06:14:18;38.97;;;20.73;;
58384;SDS011;44185;47.844;8.966;2023-03-04T06:16:44;49.53;;;26.10;;
58384;SDS011;44185;47.844;8.966;2023-03-04T06:19:09;37.92;;;18.98;;
58384;SDS011;44185;47.844;8.966;2023-03-04T06:21:35;41.42;;;18.25;;
58384;SDS011;44185;47.844;8.966;2023-03-04T06:24:00;44.92;;;21.13;;
58384;SDS011;44185;47.844;8.966;2023-03-04T06:26:27;33.25;;;17.38;;
58384;SDS011;44185;47.844;8.966;2023-03-04T06:28:52;34.65;;;15.32;;
58384;SDS011;44185;47.844;8.966;2023-03-04T06:31:18;36.47;;;16.67;;
58384;SDS011;44185;47.844;8.966;2023-03-04T06:33:43;38.63;;;17.23;;
58384;SDS011;44185;47.844;8.966;2023-03-04T06:36:08;37.55;;;16.98;;
58384;SDS011;44185;47.844;8.966;2023-03-04T06:38:34;36.58;;;17.83;;
58384;SDS011;44185;47.844;8.966;2023-03-04T06:41:04;34.75;;;17.35;;
58384;SDS011;44185;47.844;8.966;2023-03-04T06:43:32;36.88;;;17.10;;
58384;SDS011;44185;47.844;8.966;2023-03-04T06:45:57;33.08;;;17.00;;
58384;SDS011;44185;47.844;8.966;2023-03-04T06:48:23;38.53;;;18.08;;
58384;SDS011;44185;47.844;8.966;2023-03-04T06:50:48;35.60;;;18.02;;
58384;SDS011;44185;47.844;8.966;2023-03-04T06:53:14;41.22;;;18.20;;
58384;SDS011;44185;47.844;8.966;2023-03-04T06:55:39;37.72;;;18.40;;
58384;SDS011;44185;47.844;8.966;2023-03-04T06:58:05;34.30;;;17.58;;
58384;SDS011;44185;47.844;8.966;2023-03-04T07:00:32;40.13;;;18.67;;
58384;SDS011;44185;47.844;8.966;2023-03-04T07:02:57;39.00;;;17.75;;
58384;SDS011;44185;47.844;8.966;2023-03-04T07:05:23;34.17;;;17.25;;
58384;SDS011;44185;47.844;8.966;2023-03-04T07:07:48;39.50;;;18.60;;
58384;SDS011;44185;47.844;8.966;2023-03-04T07:10:14;33.40;;;17.55;;
58384;SDS011;44185;47.844;8.966;2023-03-04T07:12:39;41.45;;;18.85;;
58384;SDS011;44185;47.844;8.966;2023-03-04T07:15:05;37.55;;;18.20;;
58384;SDS011;44185;47.844;8.966;2023-03-04T07:17:32;38.30;;;17.75;;
58384;SDS011;44185;47.844;8.966;2023-03-04T07:19:58;39.95;;;18.50;;
58384;SDS011;44185;47.844;8.966;2023-03-04T07:22:23;38.60;;;18.08;;
58384;SDS011;44185;47.844;8.966;2023-03-04T07:24:49;37.67;;;17.17;;
58384;SDS011;44185;47.844;8.966;2023-03-04T07:27:14;40.80;;;18.67;;
58384;SDS011;44185;47.844;8.966;2023-03-04T07:29:39;42.42;;;20.55;;
58384;SDS011;44185;47.844;8.966;2023-03-04T07:32:06;46.70;;;21.13;;
58384;SDS011;44185;47.844;8.966;2023-03-04T07:34:33;50.90;;;24.67;;
58384;SDS011;44185;47.844;8.966;2023-03-04T07:36:58;55.72;;;25.65;;
58384;SDS011;44185;47.844;8.966;2023-03-04T07:39:24;51.78;;;24.88;;
58384;SDS011;44185;47.844;8.966;2023-03-04T07:41:49;57.00;;;28.38;;
58384;SDS011;44185;47.844;8.966;2023-03-04T07:44:15;53.83;;;25.65;;
58384;SDS011;44185;47.844;8.966;2023-03-04T07:46:40;45.97;;;22.50;;
58384;SDS011;44185;47.844;8.966;2023-03-04T07:49:06;46.90;;;23.80;;
58384;SDS011;44185;47.844;8.966;2023-03-04T07:51:33;48.83;;;23.27;;
58384;SDS011;44185;47.844;8.966;2023-03-04T07:53:58;52.10;;;24.02;;
58384;SDS011;44185;47.844;8.966;2023-03-04T07:56:26;49.25;;;22.70;;
58384;SDS011;44185;47.844;8.966;2023-03-04T07:58:52;44.78;;;22.02;;
58384;SDS011;44185;47.844;8.966;2023-03-04T08:01:19;46.65;;;21.95;;
58384;SDS011;44185;47.844;8.966;2023-03-04T08:03:47;51.00;;;22.38;;
58384;SDS011;44185;47.844;8.966;2023-03-04T08:06:13;47.00;;;21.65;;
58384;SDS011;44185;47.844;8.966;2023-03-04T08:08:41;52.50;;;23.83;;
58384;SDS011;44185;47.844;8.966;2023-03-04T08:11:08;49.20;;;23.23;;
58384;SDS011;44185;47.844;8.966;2023-03-04T08:13:35;41.53;;;21.27;;
58384;SDS011;44185;47.844;8.966;2023-03-04T08:16:01;52.38;;;24.98;;
58384;SDS011;44185;47.844;8.966;2023-03-04T08:18:27;50.20;;;25.95;;
58384;SDS011;44185;47.844;8.966;2023-03-04T08:20:52;53.95;;;26.95;;
58384;SDS011;44185;47.844;8.966;2023-03-04T08:23:18;49.17;;;24.95;;
58384;SDS011;44185;47.844;8.966;2023-03-04T08:25:45;45.92;;;23.50;;
58384;SDS011;44185;47.844;8.966;2023-03-04T08:28:11;47.28;;;22.98;;
58384;SDS011;44185;47.844;8.966;2023-03-04T08:30:38;43.88;;;22.55;;
58384;SDS011;44185;47.844;8.966;2023-03-04T08:33:04;45.40;;;23.05;;
58384;SDS011;44185;47.844;8.966;2023-03-04T08:35:30;46.75;;;21.40;;
58384;SDS011;44185;47.844;8.966;2023-03-04T08:37:56;46.63;;;22.30;;
58384;SDS011;44185;47.844;8.966;2023-03-04T08:40:22;46.70;;;22.73;;
58384;SDS011;44185;47.844;8.966;2023-03-04T08:42:48;43.58;;;21.42;;
58384;SDS011;44185;47.844;8.966;2023-03-04T08:45:14;44.65;;;19.88;;
58384;SDS011;44185;47.844;8.966;2023-03-04T08:47:40;42.58;;;21.77;;
58384;SDS011;44185;47.844;8.966;2023-03-04T08:50:05;44.10;;;18.98;;
58384;SDS011;44185;47.844;8.966;2023-03-04T08:52:32;40.17;;;21.13;;
58384;SDS011;44185;47.844;8.966;2023-03-04T08:54:57;42.83;;;21.15;;
58384;SDS011;44185;47.844;8.966;2023-03-04T08:57:23;44.63;;;20.70;;
58384;SDS011;44185;47.844;8.966;2023-03-04T08:59:50;48.42;;;21.85;;
58384;SDS011;44185;47.844;8.966;2023-03-04T09:02:15;42.70;;;20.60;;
58384;SDS011;44185;47.844;8.966;2023-03-04T09:04:41;42.28;;;19.58;;
58384;SDS011;44185;47.844;8.966;2023-03-04T09:07:06;45.53;;;21.05;;
58384;SDS011;44185;47.844;8.966;2023-03-04T09:09:32;43.58;;;21.63;;
58384;SDS011;44185;47.844;8.966;2023-03-04T09:11:57;42.88;;;19.88;;
58384;SDS011;44185;47.844;8.966;2023-03-04T09:14:22;44.72;;;20.40;;
58384;SDS011;44185;47.844;8.966;2023-03-04T09:16:50;41.65;;;20.35;;
58384;SDS011;44185;47.844;8.966;2023-03-04T09:19:15;43.55;;;20.83;;
58384;SDS011;44185;47.844;8.966;2023-03-04T09:21:41;46.85;;;20.60;;
58384;SDS011;44185;47.844;8.966;2023-03-04T09:24:06;43.13;;;21.67;;
58384;SDS011;44185;47.844;8.966;2023-03-04T09:26:32;44.55;;;21.05;;
58384;SDS011;44185;47.844;8.966;2023-03-04T09:28:58;40.95;;;20.38;;
58384;SDS011;44185;47.844;8.966;2023-03-04T09:31:25;45.17;;;19.85;;
58384;SDS011;44185;47.844;8.966;2023-03-04T09:33:53;42.58;;;20.70;;
58384;SDS011;44185;47.844;8.966;2023-03-04T09:36:20;46.05;;;20.52;;
58384;SDS011;44185;47.844;8.966;2023-03-04T09:38:46;44.63;;;21.38;;
58384;SDS011;44185;47.844;8.966;2023-03-04T09:41:13;45.58;;;21.48;;
58384;SDS011;44185;47.844;8.966;2023-03-04T09:43:41;44.88;;;20.67;;
58384;SDS011;44185;47.844;8.966;2023-03-04T09:46:09;47.53;;;23.13;;
58384;SDS011;44185;47.844;8.966;2023-03-04T09:48:41;46.85;;;21.35;;
58384;SDS011;44185;47.844;8.966;2023-03-04T09:51:15;50.45;;;22.98;;
58384;SDS011;44185;47.844;8.966;2023-03-04T09:53:46;48.20;;;21.58;;
58384;SDS011;44185;47.844;8.966;2023-03-04T09:56:22;50.65;;;23.25;;
58384;SDS011;44185;47.844;8.966;2023-03-04T09:58:52;43.25;;;20.63;;
58384;SDS011;44185;47.844;8.966;2023-03-04T10:01:28;46.97;;;21.30;;
58384;SDS011;44185;47.844;8.966;2023-03-04T10:03:58;43.28;;;22.65;;
58384;SDS011;44185;47.844;8.966;2023-03-04T10:06:31;51.33;;;23.17;;
58384;SDS011;44185;47.844;8.966;2023-03-04T10:08:58;49.88;;;22.05;;
58384;SDS011;44185;47.844;8.966;2023-03-04T10:11:27;49.83;;;22.52;;
58384;SDS011;44185;47.844;8.966;2023-03-04T10:13:59;39.25;;;20.92;;
58384;SDS011;44185;47.844;8.966;2023-03-04T10:16:30;40.35;;;19.92;;
58384;SDS011;44185;47.844;8.966;2023-03-04T10:19:01;50.30;;;23.83;;
58384;SDS011;44185;47.844;8.966;2023-03-04T10:21:33;45.63;;;21.52;;
58384;SDS011;44185;47.844;8.966;2023-03-04T10:26:35;32.73;;;15.83;;
58384;SDS011;44185;47.844;8.966;2023-03-04T10:29:00;38.67;;;17.98;;
58384;SDS011;44185;47.844;8.966;2023-03-04T10:31:27;50.53;;;22.38;;
58384;SDS011;44185;47.844;8.966;2023-03-04T10:33:56;42.13;;;20.70;;
58384;SDS011;44185;47.844;8.966;2023-03-04T10:36:29;26.25;;;12.52;;
58384;SDS011;44185;47.844;8.966;2023-03-04T10:39:06;45.90;;;21.98;;
58384;SDS011;44185;47.844;8.966;2023-03-04T10:41:33;48.50;;;22.75;;
58384;SDS011;44185;47.844;8.966;2023-03-04T10:44:00;42.22;;;19.55;;
58384;SDS011;44185;47.844;8.966;2023-03-04T10:46:27;39.75;;;19.55;;
58384;SDS011;44185;47.844;8.966;2023-03-04T10:48:53;45.83;;;21.95;;
58384;SDS011;44185;47.844;8.966;2023-03-04T10:51:19;44.67;;;21.88;;
58384;SDS011;44185;47.844;8.966;2023-03-04T10:53:49;52.33;;;23.45;;
58384;SDS011;44185;47.844;8.966;2023-03-04T10:56:33;52.85;;;24.95;;
58384;SDS011;44185;47.844;8.966;2023-03-04T11:01:54;47.17;;;22.58;;
58384;SDS011;44185;47.844;8.966;2023-03-04T11:04:21;45.67;;;21.88;;
58384;SDS011;44185;47.844;8.966;2023-03-04T11:06:48;48.05;;;23.23;;
58384;SDS011;44185;47.844;8.966;2023-03-04T11:09:21;41.30;;;20.77;;
58384;SDS011;44185;47.844;8.966;2023-03-04T11:11:49;53.67;;;24.55;;
58384;SDS011;44185;47.844;8.966;2023-03-04T11:14:17;52.88;;;24.17;;
58384;SDS011;44185;47.844;8.966;2023-03-04T11:16:51;51.42;;;23.35;;
58384;SDS011;44185;47.844;8.966;2023-03-04T11:19:18;46.53;;;23.20;;
58384;SDS011;44185;47.844;8.966;2023-03-04T11:21:47;38.17;;;17.52;;
58384;SDS011;44185;47.844;8.966;2023-03-04T11:24:13;44.60;;;21.70;;
58384;SDS011;44185;47.844;8.966;2023-03-04T11:29:12;33.38;;;16.23;;
58384;SDS011;44185;47.844;8.966;2023-03-04T11:31:44;43.53;;;21.83;;
58384;SDS011;44185;47.844;8.966;2023-03-04T11:34:14;46.42;;;23.65;;
58384;SDS011;44185;47.844;8.966;2023-03-04T11:36:47;47.28;;;22.98;;
58384;SDS011;44185;47.844;8.966;2023-03-04T11:39:19;42.97;;;21.00;;
58384;SDS011;44185;47.844;8.966;2023-03-04T11:41:53;46.67;;;22.67;;
58384;SDS011;44185;47.844;8.966;2023-03-04T11:44:24;48.47;;;23.33;;
58384;SDS011;44185;47.844;8.966;2023-03-04T11:46:58;46.72;;;25.30;;
58384;SDS011;44185;47.844;8.966;2023-03-04T11:49:57;40.72;;;19.00;;
58384;SDS011;44185;47.844;8.966;2023-03-04T11:52:38;46.70;;;22.33;;
58384;SDS011;44185;47.844;8.966;2023-03-04T11:55:23;50.78;;;20.73;;
58384;SDS011;44185;47.844;8.966;2023-03-04T11:57:57;42.72;;;22.20;;
58384;SDS011;44185;47.844;8.966;2023-03-04T12:00:33;46.75;;;23.35;;
58384;SDS011;44185;47.844;8.966;2023-03-04T12:03:14;47.45;;;23.73;;
58384;SDS011;44185;47.844;8.966;2023-03-04T12:06:01;37.80;;;16.02;;
58384;SDS011;44185;47.844;8.966;2023-03-04T12:08:38;48.10;;;22.63;;
58384;SDS011;44185;47.844;8.966;2023-03-04T12:11:16;48.47;;;22.75;;
58384;SDS011;44185;47.844;8.966;2023-03-04T12:13:57;44.20;;;22.35;;
58384;SDS011;44185;47.844;8.966;2023-03-04T12:16:45;45.40;;;23.17;;
58384;SDS011;44185;47.844;8.966;2023-03-04T12:19:38;49.38;;;22.38;;
58384;SDS011;44185;47.844;8.966;2023-03-04T12:22:24;45.83;;;21.60;;
58384;SDS011;44185;47.844;8.966;2023-03-04T12:28:10;43.58;;;21.80;;
58384;SDS011;44185;47.844;8.966;2023-03-04T12:30:50;43.53;;;22.10;;
58384;SDS011;44185;47.844;8.966;2023-03-04T12:33:26;46.35;;;23.35;;
58384;SDS011;44185;47.844;8.966;2023-03-04T12:35:59;34.58;;;17.20;;
58384;SDS011;44185;47.844;8.966;2023-03-04T12:38:34;47.70;;;23.80;;
58384;SDS011;44185;47.844;8.966;2023-03-04T12:41:19;46.30;;;20.00;;
58384;SDS011;44185;47.844;8.966;2023-03-04T12:43:54;49.58;;;24.48;;
58384;SDS011;44185;47.844;8.966;2023-03-04T12:46:36;46.45;;;22.60;;
58384;SDS011;44185;47.844;8.966;2023-03-04T12:49:14;44.90;;;22.65;;
58384;SDS011;44185;47.844;8.966;2023-03-04T12:52:01;45.25;;;19.33;;
58384;SDS011;44185;47.844;8.966;2023-03-04T12:54:35;25.13;;;13.27;;
58384;SDS011;44185;47.844;8.966;2023-03-04T12:57:06;40.75;;;18.77;;
58384;SDS011;44185;47.844;8.966;2023-03-04T12:59:35;53.33;;;25.02;;
58384;SDS011;44185;47.844;8.966;2023-03-04T13:02:13;49.00;;;23.13;;
58384;SDS011;44185;47.844;8.966;2023-03-04T13:05:07;36.72;;;19.65;;
58384;SDS011;44185;47.844;8.966;2023-03-04T13:07:51;50.13;;;23.80;;
58384;SDS011;44185;47.844;8.966;2023-03-04T13:10:22;50.95;;;25.20;;
58384;SDS011;44185;47.844;8.966;2023-03-04T13:12:49;36.47;;;17.65;;
58384;SDS011;44185;47.844;8.966;2023-03-04T13:15:24;48.85;;;24.77;;
58384;SDS011;44185;47.844;8.966;2023-03-04T13:17:54;47.78;;;23.10;;
58384;SDS011;44185;47.844;8.966;2023-03-04T13:20:31;23.70;;;13.65;;
58384;SDS011;44185;47.844;8.966;2023-03-04T13:22:59;46.15;;;22.45;;
58384;SDS011;44185;47.844;8.966;2023-03-04T13:25:35;48.88;;;24.08;;
58384;SDS011;44185;47.844;8.966;2023-03-04T13:28:14;50.20;;;23.40;;
58384;SDS011;44185;47.844;8.966;2023-03-04T13:33:53;47.40;;;21.25;;
58384;SDS011;44185;47.844;8.966;2023-03-04T13:36:33;51.60;;;23.92;;
58384;SDS011;44185;47.844;8.966;2023-03-04T13:42:03;48.90;;;24.25;;
58384;SDS011;44185;47.844;8.966;2023-03-04T13:47:33;50.90;;;24.98;;
58384;SDS011;44185;47.844;8.966;2023-03-04T13:50:26;50.88;;;25.08;;
58384;SDS011;44185;47.844;8.966;2023-03-04T13:56:09;48.60;;;22.38;;
58384;SDS011;44185;47.844;8.966;2023-03-04T13:58:44;47.75;;;22.05;;
58384;SDS011;44185;47.844;8.966;2023-03-04T14:01:19;45.40;;;23.63;;
58384;SDS011;44185;47.844;8.966;2023-03-04T14:03:47;46.40;;;24.42;;
58384;SDS011;44185;47.844;8.966;2023-03-04T14:06:18;49.45;;;24.98;;
58384;SDS011;44185;47.844;8.966;2023-03-04T14:08:45;44.53;;;22.33;;
58384;SDS011;44185;47.844;8.966;2023-03-04T14:11:12;28.83;;;15.05;;
58384;SDS011;44185;47.844;8.966;2023-03-04T14:13:39;48.38;;;24.48;;
58384;SDS011;44185;47.844;8.966;2023-03-04T14:16:05;49.88;;;24.27;;
58384;SDS011;44185;47.844;8.966;2023-03-04T14:18:31;48.80;;;23.75;;
58384;SDS011;44185;47.844;8.966;2023-03-04T14:20:57;28.98;;;15.38;;
58384;SDS011;44185;47.844;8.966;2023-03-04T14:23:26;57.20;;;24.65;;
58384;SDS011;44185;47.844;8.966;2023-03-04T14:26:04;41.97;;;22.00;;
58384;SDS011;44185;47.844;8.966;2023-03-04T14:28:30;33.55;;;16.05;;
58384;SDS011;44185;47.844;8.966;2023-03-04T14:30:56;48.42;;;23.58;;
58384;SDS011;44185;47.844;8.966;2023-03-04T14:33:23;46.30;;;22.85;;
58384;SDS011;44185;47.844;8.966;2023-03-04T14:35:51;52.60;;;25.23;;
58384;SDS011;44185;47.844;8.966;2023-03-04T14:38:20;41.78;;;20.10;;
58384;SDS011;44185;47.844;8.966;2023-03-04T14:40:52;35.00;;;17.80;;
58384;SDS011;44185;47.844;8.966;2023-03-04T14:43:21;47.38;;;23.45;;
58384;SDS011;44185;47.844;8.966;2023-03-04T14:45:48;51.13;;;23.98;;
58384;SDS011;44185;47.844;8.966;2023-03-04T14:48:17;48.78;;;22.73;;
58384;SDS011;44185;47.844;8.966;2023-03-04T14:50:47;57.17;;;24.92;;
58384;SDS011;44185;47.844;8.966;2023-03-04T14:53:13;51.28;;;24.55;;